createdAt,value
2019-01-04T00:00:32.196Z,0.81
2019-01-04T00:03:04.845Z,0.76
2019-01-04T00:05:35.540Z,0.79
2019-01-04T00:08:09.183Z,0.79
2019-01-04T00:10:39.582Z,0.82
2019-01-04T00:13:11.891Z,0.81
2019-01-04T00:15:42.427Z,0.90
2019-01-04T00:18:14.637Z,0.88
2019-01-04T00:20:46.411Z,0.84
2019-01-04T00:23:17.590Z,0.83
2019-01-04T00:25:48.930Z,0.86
2019-01-04T00:28:23.978Z,0.93
2019-01-04T00:31:01.360Z,0.94
2019-01-04T00:51:17.569Z,0.97
2019-01-04T00:53:51.164Z,1.09
2019-01-04T00:56:57.861Z,0.96
2019-01-04T01:00:20.848Z,0.94
2019-01-04T01:03:28.061Z,0.97
2019-01-04T01:06:38.450Z,1.00
2019-01-04T01:09:46.010Z,0.92
2019-01-04T01:12:39.003Z,0.85
2019-01-04T01:15:55.091Z,0.82
2019-01-04T01:18:51.146Z,0.85
2019-01-04T01:22:03.457Z,0.93
2019-01-04T01:27:59.346Z,0.96
2019-01-04T01:31:16.207Z,0.88
2019-01-04T01:34:31.718Z,0.81
2019-01-04T01:37:40.703Z,0.75
2019-01-04T01:40:56.524Z,0.74
2019-01-04T01:44:03.244Z,0.69
2019-01-04T01:46:45.495Z,0.71
2019-01-04T01:50:11.264Z,0.71
2019-01-04T01:52:45.155Z,0.77
2019-01-04T01:55:22.023Z,0.77
2019-01-04T01:57:54.393Z,0.70
2019-01-04T02:00:24.817Z,0.62
2019-01-04T02:02:56.793Z,0.73
2019-01-04T02:05:27.383Z,0.76
2019-01-04T02:08:04.087Z,0.72
2019-01-04T02:10:36.203Z,0.78
2019-01-04T02:13:58.177Z,0.82
2019-01-04T02:16:29.024Z,0.82
2019-01-04T02:18:59.435Z,0.81
2019-01-04T02:21:29.738Z,0.86
2019-01-04T02:24:00.395Z,0.90
2019-01-04T02:27:32.017Z,0.90
2019-01-04T02:30:07.842Z,0.94
2019-01-04T02:32:42.309Z,0.86
2019-01-04T02:35:34.818Z,0.85
2019-01-04T03:19:50.139Z,0.64
2019-01-04T03:22:25.111Z,0.66
2019-01-04T03:27:36.539Z,0.62
2019-01-04T03:30:08.575Z,0.55
2019-01-04T03:32:42.406Z,0.57
2019-01-04T03:35:14.283Z,0.55
2019-01-04T03:37:46.309Z,0.58
2019-01-04T03:40:18.581Z,0.58
2019-01-04T03:42:59.537Z,0.65
2019-01-04T03:45:30.657Z,0.68
2019-01-04T03:48:03.374Z,0.62
2019-01-04T03:50:47.454Z,0.60
2019-01-04T03:53:39.457Z,0.60
2019-01-04T03:56:10.875Z,0.65
2019-01-04T03:59:03.203Z,0.61
2019-01-04T04:01:35.956Z,0.60
2019-01-04T04:04:06.452Z,0.60
2019-01-04T04:06:38.183Z,0.58
2019-01-04T04:09:09.788Z,0.57
2019-01-04T04:11:42.828Z,0.65
2019-01-04T04:14:19.087Z,0.56
2019-01-04T04:16:49.680Z,0.50
2019-01-04T04:19:20.794Z,0.48
2019-01-04T04:21:52.699Z,0.56
2019-01-04T04:24:22.976Z,0.47
2019-01-04T04:26:53.637Z,0.52
2019-01-04T04:29:24.186Z,0.62
2019-01-04T04:31:54.736Z,0.61
2019-01-04T04:34:26.367Z,0.54
2019-01-04T04:37:11.987Z,0.52
2019-01-04T04:39:42.528Z,0.53
2019-01-04T04:42:13.228Z,0.50
2019-01-04T04:45:22.687Z,0.55
2019-01-04T04:48:01.209Z,0.53
2019-01-04T04:51:18.182Z,0.53
2019-01-04T04:53:51.295Z,0.58
2019-01-04T04:56:27.320Z,0.53
2019-01-04T04:59:09.801Z,0.56
2019-01-04T05:01:33.392Z,0.53
2019-01-04T05:04:49.702Z,0.56
2019-01-04T05:07:26.087Z,0.57
2019-01-04T05:12:52.256Z,0.45
2019-01-04T05:15:25.037Z,0.41
2019-01-04T05:56:54.846Z,0.56
2019-01-04T06:00:07.221Z,0.59
2019-01-04T06:02:43.306Z,0.64
2019-01-04T06:05:19.087Z,0.58
2019-01-04T06:07:56.883Z,0.57
2019-01-04T06:10:51.368Z,0.60
2019-01-04T06:13:24.945Z,0.70
2019-01-04T06:16:07.874Z,0.66
2019-01-04T06:18:38.995Z,0.66
2019-01-04T06:21:20.234Z,0.65
2019-01-04T06:23:52.484Z,0.69
2019-01-04T06:30:20.032Z,0.73
2019-01-04T06:33:02.843Z,0.76
2019-01-04T06:35:37.714Z,0.70
2019-01-04T06:38:13.716Z,0.69
2019-01-04T06:41:06.484Z,0.68
2019-01-04T06:43:52.425Z,0.69
2019-01-04T06:46:31.803Z,0.67
2019-01-04T06:50:09.243Z,0.65
2019-01-04T06:52:23.525Z,0.58
2019-01-04T06:56:05.198Z,0.58
2019-01-04T06:59:25.494Z,0.56
2019-01-04T07:02:31.863Z,0.50
2019-01-04T07:05:06.693Z,0.44
2019-01-04T07:07:44.245Z,0.42
2019-01-04T07:10:17.955Z,0.48
2019-01-04T07:13:39.866Z,0.36
2019-01-04T07:16:17.965Z,0.22
2019-01-04T07:18:51.858Z,0.21
2019-01-04T07:21:39.515Z,0.16
2019-01-04T07:24:20.449Z,0.15
2019-01-04T07:27:01.258Z,0.18
2019-01-04T07:32:18.606Z,0.22
2019-01-04T07:34:56.009Z,0.30
2019-01-04T07:37:31.171Z,0.32
2019-01-04T07:40:57.618Z,0.19
2019-01-04T07:43:56.027Z,0.20
2019-01-04T07:46:41.316Z,0.18
2019-01-04T07:49:45.106Z,0.22
2019-01-04T07:52:36.546Z,0.24
2019-01-04T08:01:17.125Z,0.25
2019-01-04T08:03:51.462Z,0.28
2019-01-04T08:06:23.719Z,0.26
2019-01-04T08:08:56.604Z,0.25
2019-01-04T08:11:31.010Z,0.25
2019-01-04T08:14:02.999Z,0.29
2019-01-04T08:16:33.736Z,0.33
2019-01-04T08:19:05.366Z,0.36
2019-01-04T08:21:35.992Z,0.41
2019-01-04T08:24:18.705Z,0.51
2019-01-04T08:26:53.643Z,0.56
2019-01-04T08:29:36.680Z,0.61
2019-01-04T08:32:36.894Z,0.70
2019-01-04T08:35:19.911Z,0.73
2019-01-04T08:39:18.773Z,0.75
2019-01-04T08:41:27.832Z,0.88
2019-01-04T08:44:04.655Z,0.86
2019-01-04T08:46:45.722Z,0.86
2019-01-04T08:49:18.696Z,0.92
2019-01-04T08:51:53.600Z,0.93
2019-01-04T08:54:28.642Z,0.93
2019-01-04T08:57:00.305Z,0.92
2019-01-04T08:59:38.925Z,0.98
2019-01-04T09:02:19.880Z,1.06
2019-01-04T09:04:53.925Z,1.22
2019-01-04T09:07:27.957Z,1.22
2019-01-04T09:10:01.552Z,1.30
2019-01-04T09:12:33.785Z,1.38
2019-01-04T09:15:04.725Z,1.46
2019-01-04T09:17:39.206Z,1.51
2019-01-04T09:20:23.323Z,1.57
2019-01-04T09:22:55.209Z,1.70
2019-01-04T09:25:27.373Z,1.78
2019-01-04T09:27:58.901Z,1.94
2019-01-04T09:30:31.706Z,2.02
2019-01-04T09:33:05.242Z,2.18
2019-01-04T09:35:36.506Z,2.26
2019-01-04T09:38:16.952Z,2.30
2019-01-04T09:41:34.515Z,2.32
2019-01-04T09:44:18.055Z,2.41
2019-01-04T09:46:55.332Z,2.43
2019-01-04T09:59:26.366Z,2.62
2019-01-04T10:01:58.382Z,2.74
2019-01-04T10:04:33.939Z,2.67
2019-01-04T10:07:06.318Z,2.76
2019-01-04T10:09:50.552Z,2.79
2019-01-04T10:12:38.334Z,2.78
2019-01-04T10:22:18.075Z,2.91
2019-01-04T10:24:56.970Z,3.00
2019-01-04T10:27:33.017Z,2.94
2019-01-04T10:30:04.227Z,2.91
2019-01-04T10:32:36.664Z,2.94
2019-01-04T10:35:20.940Z,2.97
2019-01-04T10:37:45.071Z,2.93
2019-01-04T10:40:26.768Z,2.99
2019-01-04T10:42:49.381Z,2.88
2019-01-04T10:45:27.287Z,2.90
2019-01-04T10:47:58.341Z,2.76
2019-01-04T10:50:29.880Z,2.78
2019-01-04T10:53:09.180Z,2.96
2019-01-04T10:55:41.684Z,2.97
2019-01-04T10:58:32.690Z,2.98
2019-01-04T11:01:09.292Z,3.01
2019-01-04T11:04:04.857Z,3.05
2019-01-04T11:06:39.747Z,2.96
2019-01-04T11:09:19.022Z,2.82
2019-01-04T11:11:53.734Z,2.82
2019-01-04T11:14:30.049Z,2.90
2019-01-04T11:21:27.584Z,2.76
2019-01-04T11:24:11.700Z,2.74
2019-01-04T11:26:58.865Z,2.79
2019-01-04T11:30:40.283Z,2.76
2019-01-04T11:44:37.282Z,2.77
2019-01-04T11:48:00.854Z,2.85
2019-01-04T11:51:15.318Z,2.81
2019-01-04T11:53:53.046Z,2.65
2019-01-04T11:56:32.351Z,2.67
2019-01-04T11:59:07.146Z,2.75
2019-01-04T12:01:55.720Z,2.82
2019-01-04T12:07:11.485Z,3.04
2019-01-04T12:09:46.046Z,3.01
2019-01-04T12:12:20.224Z,3.10
2019-01-04T12:15:09.651Z,3.00
2019-01-04T12:17:51.175Z,3.02
2019-01-04T12:20:22.778Z,2.96
2019-01-04T12:22:57.015Z,2.90
2019-01-04T12:25:43.647Z,2.80
2019-01-04T12:43:05.731Z,2.55
2019-01-04T12:45:44.105Z,2.52
2019-01-04T12:48:20.005Z,2.57
2019-01-04T12:51:10.580Z,2.64
2019-01-04T12:54:01.296Z,2.69
2019-01-04T12:56:38.144Z,2.54
2019-01-04T12:59:33.919Z,2.61
2019-01-04T13:02:22.528Z,2.55
2019-01-04T13:05:26.676Z,2.61
2019-01-04T13:08:12.398Z,2.55
2019-01-04T13:11:12.298Z,2.54
2019-01-04T13:13:48.869Z,2.53
2019-01-04T13:16:42.390Z,2.60
2019-01-04T13:19:34.151Z,2.58
2019-01-04T13:22:05.524Z,2.63
2019-01-04T13:24:36.072Z,2.65
2019-01-04T13:27:08.250Z,2.61
2019-01-04T13:29:39.103Z,2.54
2019-01-04T13:32:12.120Z,2.53
2019-01-04T13:34:45.638Z,2.56
2019-01-04T13:37:18.470Z,2.53
2019-01-04T13:39:49.445Z,2.52
2019-01-04T13:42:25.117Z,2.49
2019-01-04T13:44:57.379Z,2.54
2019-01-04T13:47:32.207Z,2.52
2019-01-04T13:50:00.328Z,2.56
2019-01-04T13:52:31.090Z,2.53
2019-01-04T13:55:13.734Z,2.56
2019-01-04T13:57:49.159Z,2.57
2019-01-04T14:00:30.695Z,2.66
2019-01-04T14:02:56.707Z,2.61
2019-01-04T14:05:39.062Z,2.52
2019-01-04T14:08:12.067Z,2.57
2019-01-04T14:10:43.759Z,2.62
2019-01-04T14:13:14.653Z,2.59
2019-01-04T14:15:49.800Z,2.62
2019-01-04T14:18:21.877Z,2.51
2019-01-04T14:20:59.376Z,2.56
2019-01-04T14:23:55.513Z,2.46
2019-01-04T14:26:17.406Z,2.38
2019-01-04T14:28:49.270Z,2.50
2019-01-04T14:31:20.441Z,2.49
2019-01-04T14:33:59.741Z,2.45
2019-01-04T14:36:30.567Z,2.52
2019-01-04T14:39:15.653Z,2.51
2019-01-04T14:41:54.049Z,2.47
2019-01-04T14:44:24.415Z,2.43
2019-01-04T14:46:54.857Z,2.44
2019-01-04T14:49:35.945Z,2.49
2019-01-04T14:52:06.793Z,2.37
2019-01-04T14:54:39.104Z,2.31
2019-01-04T14:57:11.316Z,2.21
2019-01-04T14:59:42.928Z,2.15
2019-01-04T15:02:16.446Z,2.15
2019-01-04T15:04:46.550Z,2.15
2019-01-04T15:07:17.037Z,2.16
2019-01-04T15:09:49.122Z,2.19
2019-01-04T15:12:22.267Z,2.19
2019-01-04T15:14:52.565Z,2.14
2019-01-04T15:17:23.088Z,2.09
2019-01-04T15:19:56.299Z,2.04
2019-01-04T15:22:28.237Z,1.95
2019-01-04T15:24:58.555Z,1.86
2019-01-04T15:27:29.280Z,2.01
2019-01-04T15:30:00.925Z,1.97
2019-01-04T15:32:36.255Z,1.98
2019-01-04T15:35:08.590Z,1.86
2019-01-04T15:37:42.757Z,1.73
2019-01-04T15:40:15.902Z,1.74
2019-01-04T15:42:46.898Z,1.82
2019-01-04T15:45:20.939Z,1.82
2019-01-04T15:47:54.926Z,1.84
2019-01-04T15:50:28.736Z,1.78
2019-01-04T15:53:00.357Z,1.73
2019-01-04T15:55:33.562Z,1.63
2019-01-04T15:58:04.421Z,1.49
2019-01-04T16:00:35.345Z,1.49
2019-01-04T16:03:07.159Z,1.61
2019-01-04T16:05:41.133Z,1.53
2019-01-04T16:08:15.021Z,1.45
2019-01-04T16:10:47.339Z,1.35
2019-01-04T16:13:17.887Z,1.30
2019-01-04T16:15:49.159Z,1.28
2019-01-04T16:18:24.416Z,1.39
2019-01-04T16:20:53.763Z,1.33
2019-01-04T16:23:24.311Z,1.30
2019-01-04T16:25:54.763Z,1.26
2019-01-04T16:28:51.035Z,1.27
2019-01-04T16:31:22.267Z,1.31
2019-01-04T16:33:53.159Z,1.38
2019-01-04T16:36:25.815Z,1.36
2019-01-04T16:38:56.680Z,1.27
2019-01-04T16:41:30.092Z,1.27
2019-01-04T16:44:07.252Z,1.21
2019-01-04T16:46:38.886Z,1.26
2019-01-04T16:49:13.699Z,1.19
2019-01-04T16:51:52.968Z,1.16
2019-01-04T16:54:23.818Z,1.23
2019-01-04T16:59:51.939Z,1.14
2019-01-04T17:02:38.268Z,1.14
2019-01-04T17:05:15.331Z,1.21
2019-01-04T17:07:45.740Z,1.29
2019-01-04T17:10:16.036Z,1.30
2019-01-04T17:12:47.689Z,1.27
2019-01-04T17:15:18.069Z,1.24
2019-01-04T17:17:51.817Z,1.25
2019-01-04T17:20:22.070Z,1.30
2019-01-04T17:23:00.697Z,1.28
2019-01-04T17:25:31.426Z,1.28
2019-01-04T17:28:06.010Z,1.33
2019-01-04T17:30:55.764Z,1.42
2019-01-04T17:33:17.569Z,1.36
2019-01-04T17:35:55.061Z,1.38
2019-01-04T17:38:25.587Z,1.37
2019-01-04T17:40:56.232Z,1.38
2019-01-04T17:43:27.080Z,1.41
2019-01-04T17:46:02.771Z,1.43
2019-01-04T17:48:38.081Z,1.51
2019-01-04T17:51:20.708Z,1.54
2019-01-04T17:53:42.774Z,1.57
2019-01-04T17:56:14.842Z,1.66
2019-01-04T17:58:47.240Z,1.75
2019-01-04T18:01:29.806Z,1.85
2019-01-04T18:04:07.188Z,1.77
2019-01-04T18:06:42.946Z,1.80
2019-01-04T18:09:19.920Z,1.81
2019-01-04T18:11:54.283Z,1.77
2019-01-04T18:14:26.174Z,1.75
2019-01-04T18:20:14.040Z,1.83
2019-01-04T18:22:48.739Z,1.90
2019-01-04T18:25:19.550Z,1.95
2019-01-04T18:27:50.499Z,1.88
2019-01-04T18:30:21.339Z,1.84
2019-01-04T18:32:51.884Z,1.80
2019-01-04T18:35:24.658Z,1.90
2019-01-04T18:38:15.384Z,1.96
2019-01-04T18:40:41.705Z,1.95
2019-01-04T18:43:15.719Z,1.94
2019-01-04T18:45:51.325Z,1.93
2019-01-04T18:48:22.744Z,1.92
2019-01-04T18:50:58.334Z,1.89
2019-01-04T18:53:38.811Z,1.97
2019-01-04T18:56:04.692Z,1.90
2019-01-04T18:58:35.093Z,1.92
2019-01-04T19:01:29.411Z,1.89
2019-01-04T19:04:01.585Z,1.89
2019-01-04T19:06:32.443Z,2.03
2019-01-04T19:09:02.939Z,2.02
2019-01-04T19:11:34.746Z,2.08
2019-01-04T19:14:09.727Z,1.99
2019-01-04T19:16:43.760Z,2.04
2019-01-04T19:19:16.459Z,2.01
2019-01-04T19:21:49.518Z,2.02
2019-01-04T19:24:20.041Z,1.95
2019-01-04T19:26:50.528Z,1.97
2019-01-04T19:29:21.919Z,1.98
2019-01-04T19:31:53.277Z,2.01
2019-01-04T19:34:27.358Z,2.02
2019-01-04T19:36:57.790Z,2.05
2019-01-04T19:39:30.943Z,2.02
2019-01-04T19:42:02.186Z,1.94
2019-01-04T19:44:34.090Z,2.03
2019-01-04T19:47:04.589Z,2.00
2019-01-04T19:49:35.464Z,2.02
2019-01-04T19:52:06.130Z,2.00
2019-01-04T19:54:36.598Z,2.02
2019-01-04T19:57:07.842Z,2.07
2019-01-04T19:59:38.219Z,2.02
2019-01-04T20:02:08.603Z,2.01
2019-01-04T20:04:41.006Z,1.98
2019-01-04T20:08:18.909Z,2.07
2019-01-04T20:11:33.238Z,2.03
2019-01-04T20:15:15.015Z,2.03
2019-01-04T20:18:16.078Z,2.08
2019-01-04T20:21:05.362Z,2.07
2019-01-04T20:23:53.396Z,2.06
2019-01-04T20:26:49.214Z,2.01
2019-01-04T20:29:45.971Z,2.04
2019-01-04T20:32:38.028Z,2.06
2019-01-04T20:35:33.395Z,2.06
2019-01-04T20:38:22.564Z,2.07
2019-01-04T20:41:10.072Z,2.07
2019-01-04T20:44:17.017Z,2.07
2019-01-04T20:47:13.618Z,2.05
2019-01-04T20:50:04.681Z,2.05
2019-01-04T20:52:54.763Z,2.03
2019-01-04T20:55:50.071Z,2.13
2019-01-04T20:58:34.985Z,2.08
2019-01-04T21:01:23.062Z,2.10
2019-01-04T21:04:11.689Z,2.05
2019-01-04T21:07:02.489Z,2.02
2019-01-04T21:09:57.851Z,1.99
2019-01-04T21:12:45.633Z,1.96
2019-01-04T21:15:34.871Z,1.87
2019-01-04T21:18:24.213Z,1.83
2019-01-04T21:21:14.943Z,1.83
2019-01-04T21:24:04.487Z,1.75
2019-01-04T21:26:47.392Z,1.77
2019-01-04T21:29:42.829Z,1.69
2019-01-04T21:32:30.272Z,1.66
2019-01-04T21:35:19.200Z,1.66
2019-01-04T21:38:26.218Z,1.66
2019-01-04T21:41:23.348Z,1.72
2019-01-04T21:44:24.813Z,1.70
2019-01-04T21:47:20.116Z,1.69
2019-01-04T21:50:09.183Z,1.69
2019-01-04T21:52:56.737Z,1.68
2019-01-04T21:55:45.877Z,1.70
2019-01-04T21:58:51.787Z,1.78
2019-01-04T22:01:44.715Z,1.71
2019-01-04T22:04:40.333Z,1.73
2019-01-04T22:07:44.500Z,1.74
2019-01-04T22:10:43.006Z,1.75
2019-01-04T22:13:30.693Z,1.73
2019-01-04T22:16:18.574Z,1.80
2019-01-04T22:19:07.658Z,1.86
2019-01-04T22:22:14.857Z,1.84
2019-01-04T22:25:16.023Z,1.88
2019-01-04T22:28:23.577Z,1.88
2019-01-04T22:31:11.123Z,1.89
2019-01-04T22:34:00.869Z,1.88
2019-01-04T22:36:49.949Z,1.89
2019-01-04T22:39:38.744Z,1.94
2019-01-04T22:42:27.863Z,1.88
2019-01-04T22:45:13.347Z,1.91
2019-01-04T22:48:02.409Z,1.95
2019-01-04T22:51:01.103Z,1.95
2019-01-04T22:53:48.576Z,1.95
2019-01-04T22:56:51.170Z,1.98
2019-01-04T22:59:43.269Z,1.94
2019-01-04T23:02:50.866Z,2.02
2019-01-04T23:05:38.924Z,1.99
2019-01-04T23:08:40.386Z,1.96
2019-01-04T23:11:44.839Z,1.93
2019-01-04T23:14:44.061Z,1.91
2019-01-04T23:17:43.082Z,1.98
2019-01-04T23:20:33.711Z,1.96
2019-01-04T23:23:21.340Z,1.90
2019-01-04T23:26:09.325Z,1.90
2019-01-04T23:28:58.659Z,1.89
2019-01-04T23:32:06.027Z,1.85
2019-01-04T23:35:13.523Z,1.89
2019-01-04T23:38:08.728Z,1.83
2019-01-04T23:41:06.761Z,1.90
2019-01-04T23:43:57.173Z,1.85
2019-01-04T23:46:58.107Z,1.88
2019-01-04T23:49:50.548Z,1.94
2019-01-04T23:52:38.291Z,1.93
2019-01-04T23:55:22.690Z,1.93
2019-01-04T23:58:26.709Z,1.92
